sensor_id;sensor_type;location;lat;lon;timestamp;P1;durP1;ratioP1;P2;durP2;ratioP2
22774;SDS011;11554;51.106;3.684;2022-09-20T00:00:00;6.90;;;2.90;;
22774;SDS011;11554;51.106;3.684;2022-09-20T00:05:00;6.60;;;2.90;;
22774;SDS011;11554;51.106;3.684;2022-09-20T00:10:00;6.60;;;2.90;;
22774;SDS011;11554;51.106;3.684;2022-09-20T00:15:00;6.30;;;2.90;;
22774;SDS011;11554;51.106;3.684;2022-09-20T00:20:00;6.30;;;2.90;;
22774;SDS011;11554;51.106;3.684;2022-09-20T00:25:00;7.00;;;2.90;;
22774;SDS011;11554;51.106;3.684;2022-09-20T00:30:00;7.00;;;2.90;;
22774;SDS011;11554;51.106;3.684;2022-09-20T00:35:00;6.50;;;3.00;;
22774;SDS011;11554;51.106;3.684;2022-09-20T00:40:00;6.50;;;3.00;;
22774;SDS011;11554;51.106;3.684;2022-09-20T00:45:02;6.10;;;2.90;;
22774;SDS011;11554;51.106;3.684;2022-09-20T00:50:06;6.10;;;2.90;;
22774;SDS011;11554;51.106;3.684;2022-09-20T00:55:02;6.30;;;3.30;;
22774;SDS011;11554;51.106;3.684;2022-09-20T01:00:01;6.30;;;3.30;;
22774;SDS011;11554;51.106;3.684;2022-09-20T01:05:00;10.20;;;3.60;;
22774;SDS011;11554;51.106;3.684;2022-09-20T01:10:00;10.20;;;3.60;;
22774;SDS011;11554;51.106;3.684;2022-09-20T01:15:02;5.10;;;3.10;;
22774;SDS011;11554;51.106;3.684;2022-09-20T01:20:11;5.10;;;3.10;;
22774;SDS011;11554;51.106;3.684;2022-09-20T01:25:08;6.80;;;3.10;;
22774;SDS011;11554;51.106;3.684;2022-09-20T01:30:04;6.80;;;3.10;;
22774;SDS011;11554;51.106;3.684;2022-09-20T01:35:00;6.80;;;3.30;;
22774;SDS011;11554;51.106;3.684;2022-09-20T01:40:05;6.80;;;3.30;;
22774;SDS011;11554;51.106;3.684;2022-09-20T01:45:03;6.20;;;3.20;;
22774;SDS011;11554;51.106;3.684;2022-09-20T01:50:08;6.20;;;3.20;;
22774;SDS011;11554;51.106;3.684;2022-09-20T01:55:16;6.70;;;3.40;;
22774;SDS011;11554;51.106;3.684;2022-09-20T02:00:06;6.70;;;3.40;;
22774;SDS011;11554;51.106;3.684;2022-09-20T02:05:12;10.20;;;3.80;;
22774;SDS011;11554;51.106;3.684;2022-09-20T02:10:12;10.20;;;3.80;;
22774;SDS011;11554;51.106;3.684;2022-09-20T02:15:07;7.60;;;3.40;;
22774;SDS011;11554;51.106;3.684;2022-09-20T02:20:07;7.60;;;3.40;;
22774;SDS011;11554;51.106;3.684;2022-09-20T02:25:11;5.70;;;2.90;;
22774;SDS011;11554;51.106;3.684;2022-09-20T02:30:11;5.70;;;2.90;;
22774;SDS011;11554;51.106;3.684;2022-09-20T02:35:15;8.90;;;3.70;;
22774;SDS011;11554;51.106;3.684;2022-09-20T02:40:14;8.90;;;3.70;;
22774;SDS011;11554;51.106;3.684;2022-09-20T02:45:06;5.50;;;2.90;;
22774;SDS011;11554;51.106;3.684;2022-09-20T02:50:12;5.50;;;2.90;;
22774;SDS011;11554;51.106;3.684;2022-09-20T02:55:06;7.80;;;3.30;;
22774;SDS011;11554;51.106;3.684;2022-09-20T03:00:03;7.80;;;3.30;;
22774;SDS011;11554;51.106;3.684;2022-09-20T03:05:09;7.60;;;3.40;;
22774;SDS011;11554;51.106;3.684;2022-09-20T03:10:09;7.60;;;3.40;;
22774;SDS011;11554;51.106;3.684;2022-09-20T03:15:13;8.20;;;3.10;;
22774;SDS011;11554;51.106;3.684;2022-09-20T03:20:07;8.20;;;3.10;;
22774;SDS011;11554;51.106;3.684;2022-09-20T03:25:19;7.60;;;3.30;;
22774;SDS011;11554;51.106;3.684;2022-09-20T03:30:13;7.60;;;3.30;;
22774;SDS011;11554;51.106;3.684;2022-09-20T03:35:12;6.10;;;3.50;;
22774;SDS011;11554;51.106;3.684;2022-09-20T03:40:15;6.10;;;3.50;;
22774;SDS011;11554;51.106;3.684;2022-09-20T03:45:15;7.10;;;3.40;;
22774;SDS011;11554;51.106;3.684;2022-09-20T03:50:15;7.10;;;3.40;;
22774;SDS011;11554;51.106;3.684;2022-09-20T03:55:20;4.80;;;2.60;;
22774;SDS011;11554;51.106;3.684;2022-09-20T04:00:15;4.80;;;2.60;;
22774;SDS011;11554;51.106;3.684;2022-09-20T04:05:02;4.70;;;2.60;;
22774;SDS011;11554;51.106;3.684;2022-09-20T04:10:10;4.70;;;2.60;;
22774;SDS011;11554;51.106;3.684;2022-09-20T04:15:15;6.60;;;2.80;;
22774;SDS011;11554;51.106;3.684;2022-09-20T04:20:04;6.60;;;2.80;;
22774;SDS011;11554;51.106;3.684;2022-09-20T04:25:10;11.00;;;3.70;;
22774;SDS011;11554;51.106;3.684;2022-09-20T04:30:03;11.00;;;3.70;;
22774;SDS011;11554;51.106;3.684;2022-09-20T04:35:04;6.40;;;2.80;;
22774;SDS011;11554;51.106;3.684;2022-09-20T04:40:13;6.40;;;2.80;;
22774;SDS011;11554;51.106;3.684;2022-09-20T04:45:13;5.20;;;2.90;;
22774;SDS011;11554;51.106;3.684;2022-09-20T04:50:16;5.20;;;2.90;;
22774;SDS011;11554;51.106;3.684;2022-09-20T04:55:15;5.30;;;2.90;;
22774;SDS011;11554;51.106;3.684;2022-09-20T05:00:04;5.30;;;2.90;;
22774;SDS011;11554;51.106;3.684;2022-09-20T05:05:17;7.70;;;3.50;;
22774;SDS011;11554;51.106;3.684;2022-09-20T05:10:14;7.70;;;3.50;;
22774;SDS011;11554;51.106;3.684;2022-09-20T05:15:10;8.80;;;3.20;;
22774;SDS011;11554;51.106;3.684;2022-09-20T05:20:14;8.80;;;3.20;;
22774;SDS011;11554;51.106;3.684;2022-09-20T05:25:13;7.20;;;3.20;;
22774;SDS011;11554;51.106;3.684;2022-09-20T05:30:03;7.20;;;3.20;;
22774;SDS011;11554;51.106;3.684;2022-09-20T05:35:05;7.30;;;2.90;;
22774;SDS011;11554;51.106;3.684;2022-09-20T05:40:05;7.30;;;2.90;;
22774;SDS011;11554;51.106;3.684;2022-09-20T05:45:15;7.70;;;3.20;;
22774;SDS011;11554;51.106;3.684;2022-09-20T05:50:13;7.70;;;3.20;;
22774;SDS011;11554;51.106;3.684;2022-09-20T05:55:15;11.40;;;4.30;;
22774;SDS011;11554;51.106;3.684;2022-09-20T06:00:03;11.40;;;4.30;;
22774;SDS011;11554;51.106;3.684;2022-09-20T06:05:02;9.40;;;4.30;;
22774;SDS011;11554;51.106;3.684;2022-09-20T06:10:16;9.40;;;4.30;;
22774;SDS011;11554;51.106;3.684;2022-09-20T06:15:11;8.60;;;4.50;;
22774;SDS011;11554;51.106;3.684;2022-09-20T06:20:12;8.60;;;4.50;;
22774;SDS011;11554;51.106;3.684;2022-09-20T06:25:03;13.20;;;6.90;;
22774;SDS011;11554;51.106;3.684;2022-09-20T06:30:03;13.20;;;6.90;;
22774;SDS011;11554;51.106;3.684;2022-09-20T06:35:01;16.60;;;7.50;;
22774;SDS011;11554;51.106;3.684;2022-09-20T06:40:12;16.60;;;7.50;;
22774;SDS011;11554;51.106;3.684;2022-09-20T06:45:00;12.20;;;5.90;;
22774;SDS011;11554;51.106;3.684;2022-09-20T06:50:00;12.20;;;5.90;;
22774;SDS011;11554;51.106;3.684;2022-09-20T06:55:00;11.40;;;5.70;;
22774;SDS011;11554;51.106;3.684;2022-09-20T07:00:00;11.40;;;5.70;;
22774;SDS011;11554;51.106;3.684;2022-09-20T07:05:00;8.80;;;5.10;;
22774;SDS011;11554;51.106;3.684;2022-09-20T07:10:00;8.80;;;5.10;;
22774;SDS011;11554;51.106;3.684;2022-09-20T07:15:00;8.20;;;4.20;;
22774;SDS011;11554;51.106;3.684;2022-09-20T07:20:00;8.20;;;4.20;;
22774;SDS011;11554;51.106;3.684;2022-09-20T07:25:00;10.60;;;4.20;;
22774;SDS011;11554;51.106;3.684;2022-09-20T07:30:00;10.60;;;4.20;;
22774;SDS011;11554;51.106;3.684;2022-09-20T07:35:00;10.10;;;3.90;;
22774;SDS011;11554;51.106;3.684;2022-09-20T07:40:00;10.10;;;3.90;;
22774;SDS011;11554;51.106;3.684;2022-09-20T07:45:00;8.10;;;3.40;;
22774;SDS011;11554;51.106;3.684;2022-09-20T07:50:00;8.10;;;3.40;;
22774;SDS011;11554;51.106;3.684;2022-09-20T07:55:00;6.90;;;2.80;;
22774;SDS011;11554;51.106;3.684;2022-09-20T08:00:00;6.90;;;2.80;;
22774;SDS011;11554;51.106;3.684;2022-09-20T08:05:00;7.50;;;2.90;;
22774;SDS011;11554;51.106;3.684;2022-09-20T08:10:00;7.50;;;2.90;;
22774;SDS011;11554;51.106;3.684;2022-09-20T08:15:00;7.00;;;3.00;;
22774;SDS011;11554;51.106;3.684;2022-09-20T08:20:00;7.00;;;3.00;;
22774;SDS011;11554;51.106;3.684;2022-09-20T08:25:00;6.30;;;2.80;;
22774;SDS011;11554;51.106;3.684;2022-09-20T08:30:00;6.30;;;2.80;;
22774;SDS011;11554;51.106;3.684;2022-09-20T08:35:00;6.40;;;2.00;;
22774;SDS011;11554;51.106;3.684;2022-09-20T08:40:00;6.40;;;2.00;;
22774;SDS011;11554;51.106;3.684;2022-09-20T08:45:02;5.70;;;2.20;;
22774;SDS011;11554;51.106;3.684;2022-09-20T08:50:03;5.70;;;2.20;;
22774;SDS011;11554;51.106;3.684;2022-09-20T08:55:00;5.50;;;2.10;;
22774;SDS011;11554;51.106;3.684;2022-09-20T09:00:02;5.50;;;2.10;;
22774;SDS011;11554;51.106;3.684;2022-09-20T09:05:02;5.30;;;2.00;;
22774;SDS011;11554;51.106;3.684;2022-09-20T09:10:00;5.30;;;2.00;;
22774;SDS011;11554;51.106;3.684;2022-09-20T09:15:08;5.40;;;1.90;;
22774;SDS011;11554;51.106;3.684;2022-09-20T09:20:14;5.40;;;1.90;;
22774;SDS011;11554;51.106;3.684;2022-09-20T09:25:17;5.50;;;1.70;;
22774;SDS011;11554;51.106;3.684;2022-09-20T09:30:00;5.50;;;1.70;;
22774;SDS011;11554;51.106;3.684;2022-09-20T09:35:21;6.80;;;1.50;;
22774;SDS011;11554;51.106;3.684;2022-09-20T09:40:12;6.80;;;1.50;;
22774;SDS011;11554;51.106;3.684;2022-09-20T09:45:10;5.40;;;1.70;;
22774;SDS011;11554;51.106;3.684;2022-09-20T09:50:00;5.40;;;1.70;;
22774;SDS011;11554;51.106;3.684;2022-09-20T09:55:02;8.20;;;2.50;;
22774;SDS011;11554;51.106;3.684;2022-09-20T10:00:06;8.20;;;2.50;;
22774;SDS011;11554;51.106;3.684;2022-09-20T10:05:04;10.50;;;2.20;;
22774;SDS011;11554;51.106;3.684;2022-09-20T10:10:06;10.50;;;2.20;;
22774;SDS011;11554;51.106;3.684;2022-09-20T10:15:11;6.70;;;1.70;;
22774;SDS011;11554;51.106;3.684;2022-09-20T10:20:19;6.70;;;1.70;;
22774;SDS011;11554;51.106;3.684;2022-09-20T10:25:08;5.70;;;1.70;;
22774;SDS011;11554;51.106;3.684;2022-09-20T10:30:06;5.70;;;1.70;;
22774;SDS011;11554;51.106;3.684;2022-09-20T10:35:12;5.40;;;1.40;;
22774;SDS011;11554;51.106;3.684;2022-09-20T10:40:09;5.40;;;1.40;;
22774;SDS011;11554;51.106;3.684;2022-09-20T10:45:06;5.90;;;1.40;;
22774;SDS011;11554;51.106;3.684;2022-09-20T10:50:09;5.90;;;1.40;;
22774;SDS011;11554;51.106;3.684;2022-09-20T11:00:03;2.70;;;0.80;;
22774;SDS011;11554;51.106;3.684;2022-09-20T11:05:16;2.60;;;0.80;;
22774;SDS011;11554;51.106;3.684;2022-09-20T11:10:04;2.60;;;0.80;;
22774;SDS011;11554;51.106;3.684;2022-09-20T11:15:02;3.10;;;0.50;;
22774;SDS011;11554;51.106;3.684;2022-09-20T11:20:06;3.10;;;0.50;;
22774;SDS011;11554;51.106;3.684;2022-09-20T11:25:03;3.40;;;0.70;;
22774;SDS011;11554;51.106;3.684;2022-09-20T11:30:02;3.40;;;0.70;;
22774;SDS011;11554;51.106;3.684;2022-09-20T11:35:03;4.50;;;0.80;;
22774;SDS011;11554;51.106;3.684;2022-09-20T11:40:07;4.50;;;0.80;;
22774;SDS011;11554;51.106;3.684;2022-09-20T11:45:00;2.40;;;0.50;;
22774;SDS011;11554;51.106;3.684;2022-09-20T11:55:13;3.30;;;0.60;;
22774;SDS011;11554;51.106;3.684;2022-09-20T12:00:02;3.30;;;0.60;;
22774;SDS011;11554;51.106;3.684;2022-09-20T12:05:00;2.60;;;0.60;;
22774;SDS011;11554;51.106;3.684;2022-09-20T12:10:02;2.60;;;0.60;;
22774;SDS011;11554;51.106;3.684;2022-09-20T12:15:03;3.30;;;0.60;;
22774;SDS011;11554;51.106;3.684;2022-09-20T12:20:00;3.30;;;0.60;;
22774;SDS011;11554;51.106;3.684;2022-09-20T12:30:06;3.10;;;0.90;;
22774;SDS011;11554;51.106;3.684;2022-09-20T12:35:00;3.70;;;0.70;;
22774;SDS011;11554;51.106;3.684;2022-09-20T12:40:00;3.70;;;0.70;;
22774;SDS011;11554;51.106;3.684;2022-09-20T12:45:03;3.00;;;0.70;;
22774;SDS011;11554;51.106;3.684;2022-09-20T12:50:01;3.00;;;0.70;;
22774;SDS011;11554;51.106;3.684;2022-09-20T12:55:00;1.60;;;0.50;;
22774;SDS011;11554;51.106;3.684;2022-09-20T13:00:03;1.60;;;0.50;;
22774;SDS011;11554;51.106;3.684;2022-09-20T13:05:00;3.00;;;0.80;;
22774;SDS011;11554;51.106;3.684;2022-09-20T13:10:04;3.00;;;0.80;;
22774;SDS011;11554;51.106;3.684;2022-09-20T13:15:00;2.60;;;0.60;;
22774;SDS011;11554;51.106;3.684;2022-09-20T13:20:00;2.60;;;0.60;;
22774;SDS011;11554;51.106;3.684;2022-09-20T13:25:02;3.70;;;0.80;;
22774;SDS011;11554;51.106;3.684;2022-09-20T13:30:08;3.70;;;0.80;;
22774;SDS011;11554;51.106;3.684;2022-09-20T13:35:04;3.10;;;0.70;;
22774;SDS011;11554;51.106;3.684;2022-09-20T13:40:01;3.10;;;0.70;;
22774;SDS011;11554;51.106;3.684;2022-09-20T13:45:02;4.50;;;1.00;;
22774;SDS011;11554;51.106;3.684;2022-09-20T13:50:01;4.50;;;1.00;;
22774;SDS011;11554;51.106;3.684;2022-09-20T14:00:00;2.30;;;0.70;;
22774;SDS011;11554;51.106;3.684;2022-09-20T14:05:03;4.10;;;0.80;;
22774;SDS011;11554;51.106;3.684;2022-09-20T14:10:00;4.10;;;0.80;;
22774;SDS011;11554;51.106;3.684;2022-09-20T14:15:05;3.00;;;0.70;;
22774;SDS011;11554;51.106;3.684;2022-09-20T14:20:01;3.00;;;0.70;;
22774;SDS011;11554;51.106;3.684;2022-09-20T14:25:02;4.30;;;0.90;;
22774;SDS011;11554;51.106;3.684;2022-09-20T14:30:00;4.30;;;0.90;;
22774;SDS011;11554;51.106;3.684;2022-09-20T14:35:03;2.40;;;0.80;;
22774;SDS011;11554;51.106;3.684;2022-09-20T14:40:03;2.40;;;0.80;;
22774;SDS011;11554;51.106;3.684;2022-09-20T14:45:00;3.00;;;0.80;;
22774;SDS011;11554;51.106;3.684;2022-09-20T14:50:00;3.00;;;0.80;;
22774;SDS011;11554;51.106;3.684;2022-09-20T14:55:09;2.90;;;0.80;;
22774;SDS011;11554;51.106;3.684;2022-09-20T15:00:04;2.90;;;0.80;;
22774;SDS011;11554;51.106;3.684;2022-09-20T15:05:00;3.70;;;0.70;;
22774;SDS011;11554;51.106;3.684;2022-09-20T15:10:00;3.70;;;0.70;;
22774;SDS011;11554;51.106;3.684;2022-09-20T15:15:00;5.00;;;0.80;;
22774;SDS011;11554;51.106;3.684;2022-09-20T15:20:00;5.00;;;0.80;;
22774;SDS011;11554;51.106;3.684;2022-09-20T15:25:00;2.20;;;0.50;;
22774;SDS011;11554;51.106;3.684;2022-09-20T15:30:00;2.20;;;0.50;;
22774;SDS011;11554;51.106;3.684;2022-09-20T15:35:00;2.90;;;0.70;;
22774;SDS011;11554;51.106;3.684;2022-09-20T15:40:00;2.90;;;0.70;;
22774;SDS011;11554;51.106;3.684;2022-09-20T15:45:00;2.90;;;0.50;;
22774;SDS011;11554;51.106;3.684;2022-09-20T15:50:00;2.90;;;0.50;;
22774;SDS011;11554;51.106;3.684;2022-09-20T15:55:00;4.70;;;0.90;;
22774;SDS011;11554;51.106;3.684;2022-09-20T16:00:00;4.70;;;0.90;;
22774;SDS011;11554;51.106;3.684;2022-09-20T16:05:01;5.00;;;1.30;;
22774;SDS011;11554;51.106;3.684;2022-09-20T16:10:00;5.00;;;1.30;;
22774;SDS011;11554;51.106;3.684;2022-09-20T16:15:00;8.50;;;3.00;;
22774;SDS011;11554;51.106;3.684;2022-09-20T16:20:00;8.50;;;3.00;;
22774;SDS011;11554;51.106;3.684;2022-09-20T16:25:00;8.70;;;3.20;;
22774;SDS011;11554;51.106;3.684;2022-09-20T16:30:00;8.70;;;3.20;;
22774;SDS011;11554;51.106;3.684;2022-09-20T16:35:00;6.90;;;1.40;;
22774;SDS011;11554;51.106;3.684;2022-09-20T16:40:00;6.90;;;1.40;;
22774;SDS011;11554;51.106;3.684;2022-09-20T16:45:00;5.60;;;1.40;;
22774;SDS011;11554;51.106;3.684;2022-09-20T16:50:00;5.60;;;1.40;;
22774;SDS011;11554;51.106;3.684;2022-09-20T16:55:00;4.90;;;1.50;;
22774;SDS011;11554;51.106;3.684;2022-09-20T17:00:00;4.90;;;1.50;;
22774;SDS011;11554;51.106;3.684;2022-09-20T17:05:00;3.90;;;1.10;;
22774;SDS011;11554;51.106;3.684;2022-09-20T17:10:00;3.90;;;1.10;;
22774;SDS011;11554;51.106;3.684;2022-09-20T17:15:00;4.90;;;1.30;;
22774;SDS011;11554;51.106;3.684;2022-09-20T17:20:00;4.90;;;1.30;;
22774;SDS011;11554;51.106;3.684;2022-09-20T17:25:00;5.60;;;1.20;;
22774;SDS011;11554;51.106;3.684;2022-09-20T17:30:00;5.60;;;1.20;;
22774;SDS011;11554;51.106;3.684;2022-09-20T17:35:00;5.90;;;1.20;;
22774;SDS011;11554;51.106;3.684;2022-09-20T17:40:00;5.90;;;1.20;;
22774;SDS011;11554;51.106;3.684;2022-09-20T17:45:00;5.50;;;1.10;;
22774;SDS011;11554;51.106;3.684;2022-09-20T17:50:01;5.50;;;1.10;;
22774;SDS011;11554;51.106;3.684;2022-09-20T17:55:00;3.80;;;1.10;;
22774;SDS011;11554;51.106;3.684;2022-09-20T18:00:00;3.80;;;1.10;;
22774;SDS011;11554;51.106;3.684;2022-09-20T18:05:00;5.30;;;1.30;;
22774;SDS011;11554;51.106;3.684;2022-09-20T18:10:00;5.30;;;1.30;;
22774;SDS011;11554;51.106;3.684;2022-09-20T18:15:00;4.70;;;1.00;;
22774;SDS011;11554;51.106;3.684;2022-09-20T18:20:00;4.70;;;1.00;;
22774;SDS011;11554;51.106;3.684;2022-09-20T18:25:00;6.60;;;1.80;;
22774;SDS011;11554;51.106;3.684;2022-09-20T18:30:00;6.60;;;1.80;;
22774;SDS011;11554;51.106;3.684;2022-09-20T18:35:00;5.90;;;1.70;;
22774;SDS011;11554;51.106;3.684;2022-09-20T18:40:00;5.90;;;1.70;;
22774;SDS011;11554;51.106;3.684;2022-09-20T18:45:00;5.70;;;2.00;;
22774;SDS011;11554;51.106;3.684;2022-09-20T18:50:00;5.70;;;2.00;;
22774;SDS011;11554;51.106;3.684;2022-09-20T18:55:00;7.60;;;3.10;;
22774;SDS011;11554;51.106;3.684;2022-09-20T19:00:00;7.60;;;3.10;;
22774;SDS011;11554;51.106;3.684;2022-09-20T19:05:13;10.20;;;4.00;;
22774;SDS011;11554;51.106;3.684;2022-09-20T19:10:07;10.20;;;4.00;;
22774;SDS011;11554;51.106;3.684;2022-09-20T19:15:14;11.00;;;4.60;;
22774;SDS011;11554;51.106;3.684;2022-09-20T19:20:03;11.00;;;4.60;;
22774;SDS011;11554;51.106;3.684;2022-09-20T19:25:11;10.80;;;5.00;;
22774;SDS011;11554;51.106;3.684;2022-09-20T19:30:00;10.80;;;5.00;;
22774;SDS011;11554;51.106;3.684;2022-09-20T19:35:00;9.70;;;4.50;;
22774;SDS011;11554;51.106;3.684;2022-09-20T19:40:14;9.70;;;4.50;;
22774;SDS011;11554;51.106;3.684;2022-09-20T19:45:07;9.20;;;4.60;;
22774;SDS011;11554;51.106;3.684;2022-09-20T19:50:06;9.20;;;4.60;;
22774;SDS011;11554;51.106;3.684;2022-09-20T19:55:00;10.60;;;4.70;;
22774;SDS011;11554;51.106;3.684;2022-09-20T20:00:00;10.60;;;4.70;;
22774;SDS011;11554;51.106;3.684;2022-09-20T20:05:03;9.70;;;5.00;;
22774;SDS011;11554;51.106;3.684;2022-09-20T20:10:07;9.70;;;5.00;;
22774;SDS011;11554;51.106;3.684;2022-09-20T20:15:07;7.50;;;4.70;;
22774;SDS011;11554;51.106;3.684;2022-09-20T20:20:10;7.50;;;4.70;;
22774;SDS011;11554;51.106;3.684;2022-09-20T20:25:00;9.30;;;4.90;;
22774;SDS011;11554;51.106;3.684;2022-09-20T20:30:00;9.30;;;4.90;;
22774;SDS011;11554;51.106;3.684;2022-09-20T20:35:00;9.40;;;5.80;;
22774;SDS011;11554;51.106;3.684;2022-09-20T20:40:00;9.40;;;5.80;;
22774;SDS011;11554;51.106;3.684;2022-09-20T20:45:00;10.10;;;5.70;;
22774;SDS011;11554;51.106;3.684;2022-09-20T20:50:00;10.10;;;5.70;;
22774;SDS011;11554;51.106;3.684;2022-09-20T20:55:00;10.30;;;5.50;;
22774;SDS011;11554;51.106;3.684;2022-09-20T21:00:00;10.30;;;5.50;;
22774;SDS011;11554;51.106;3.684;2022-09-20T21:05:00;8.30;;;4.50;;
22774;SDS011;11554;51.106;3.684;2022-09-20T21:10:00;8.30;;;4.50;;
22774;SDS011;11554;51.106;3.684;2022-09-20T21:15:00;7.90;;;4.70;;
22774;SDS011;11554;51.106;3.684;2022-09-20T21:20:00;7.90;;;4.70;;
22774;SDS011;11554;51.106;3.684;2022-09-20T21:25:00;8.00;;;4.60;;
22774;SDS011;11554;51.106;3.684;2022-09-20T21:30:00;8.00;;;4.60;;
22774;SDS011;11554;51.106;3.684;2022-09-20T21:35:00;9.90;;;6.00;;
22774;SDS011;11554;51.106;3.684;2022-09-20T21:40:00;9.90;;;6.00;;
22774;SDS011;11554;51.106;3.684;2022-09-20T21:45:00;7.90;;;5.70;;
22774;SDS011;11554;51.106;3.684;2022-09-20T21:50:00;7.90;;;5.70;;
22774;SDS011;11554;51.106;3.684;2022-09-20T21:55:00;9.80;;;5.70;;
22774;SDS011;11554;51.106;3.684;2022-09-20T22:00:00;9.80;;;5.70;;
22774;SDS011;11554;51.106;3.684;2022-09-20T22:05:00;8.60;;;5.60;;
22774;SDS011;11554;51.106;3.684;2022-09-20T22:10:00;8.60;;;5.60;;
22774;SDS011;11554;51.106;3.684;2022-09-20T22:15:00;9.30;;;5.90;;
22774;SDS011;11554;51.106;3.684;2022-09-20T22:20:00;9.30;;;5.90;;
22774;SDS011;11554;51.106;3.684;2022-09-20T22:25:00;10.00;;;5.20;;
22774;SDS011;11554;51.106;3.684;2022-09-20T22:30:00;10.00;;;5.20;;
22774;SDS011;11554;51.106;3.684;2022-09-20T22:35:00;10.20;;;5.50;;
22774;SDS011;11554;51.106;3.684;2022-09-20T22:40:00;10.20;;;5.50;;
22774;SDS011;11554;51.106;3.684;2022-09-20T22:45:00;10.90;;;7.20;;
22774;SDS011;11554;51.106;3.684;2022-09-20T22:50:00;10.90;;;7.20;;
22774;SDS011;11554;51.106;3.684;2022-09-20T22:55:00;12.20;;;7.50;;
22774;SDS011;11554;51.106;3.684;2022-09-20T23:00:00;12.20;;;7.50;;
22774;SDS011;11554;51.106;3.684;2022-09-20T23:05:00;12.10;;;7.80;;
22774;SDS011;11554;51.106;3.684;2022-09-20T23:10:00;12.10;;;7.80;;
22774;SDS011;11554;51.106;3.684;2022-09-20T23:15:00;12.50;;;8.20;;
22774;SDS011;11554;51.106;3.684;2022-09-20T23:20:00;12.50;;;8.20;;
22774;SDS011;11554;51.106;3.684;2022-09-20T23:25:00;14.80;;;7.70;;
22774;SDS011;11554;51.106;3.684;2022-09-20T23:30:00;14.80;;;7.70;;
22774;SDS011;11554;51.106;3.684;2022-09-20T23:35:00;11.50;;;7.30;;
22774;SDS011;11554;51.106;3.684;2022-09-20T23:40:00;11.50;;;7.30;;
22774;SDS011;11554;51.106;3.684;2022-09-20T23:45:00;14.00;;;8.20;;
22774;SDS011;11554;51.106;3.684;2022-09-20T23:50:00;14.00;;;8.20;;
22774;SDS011;11554;51.106;3.684;2022-09-20T23:55:00;13.50;;;7.90;;
